createdAt,value
2018-06-08T00:00:23.356Z,0.00
2018-06-08T00:01:23.362Z,0.00
2018-06-08T00:02:23.373Z,0.00
2018-06-08T00:03:23.368Z,0.00
2018-06-08T00:04:23.383Z,0.00
2018-06-08T00:05:23.376Z,0.00
2018-06-08T00:06:23.383Z,0.00
2018-06-08T00:07:23.383Z,0.00
2018-06-08T00:08:23.391Z,0.00
2018-06-08T00:09:23.397Z,0.00
2018-06-08T00:10:23.394Z,0.00
2018-06-08T00:11:23.401Z,0.00
2018-06-08T00:12:23.411Z,0.00
2018-06-08T00:13:23.411Z,0.00
2018-06-08T00:14:23.423Z,0.00
2018-06-08T00:15:23.421Z,0.00
2018-06-08T00:16:23.428Z,0.00
2018-06-08T00:17:23.432Z,0.00
2018-06-08T00:18:23.443Z,0.00
2018-06-08T00:19:23.450Z,0.00
2018-06-08T00:20:23.439Z,0.00
2018-06-08T00:21:23.448Z,0.00
2018-06-08T00:22:23.473Z,0.00
2018-06-08T00:23:23.459Z,0.00
2018-06-08T00:24:23.469Z,0.00
2018-06-08T00:25:23.475Z,0.00
2018-06-08T00:26:23.475Z,0.00
2018-06-08T00:27:23.473Z,0.00
2018-06-08T00:28:23.492Z,0.00
2018-06-08T00:29:23.490Z,0.00
2018-06-08T00:30:23.486Z,0.00
2018-06-08T00:31:23.505Z,0.00
2018-06-08T00:32:23.502Z,0.00
2018-06-08T00:33:23.513Z,0.00
2018-06-08T00:34:23.508Z,0.00
2018-06-08T00:35:23.508Z,0.00
2018-06-08T00:36:23.514Z,0.00
2018-06-08T00:37:23.524Z,0.00
2018-06-08T00:38:23.526Z,0.00
2018-06-08T00:39:23.529Z,0.00
2018-06-08T00:40:23.538Z,0.00
2018-06-08T00:41:23.538Z,0.00
2018-06-08T00:42:23.544Z,0.00
2018-06-08T00:43:23.550Z,0.00
2018-06-08T00:44:23.551Z,0.00
2018-06-08T00:45:23.560Z,0.00
2018-06-08T00:46:23.561Z,0.00
2018-06-08T00:47:23.569Z,0.00
2018-06-08T00:48:23.589Z,0.00
2018-06-08T00:49:23.575Z,0.00
2018-06-08T00:50:23.581Z,0.00
2018-06-08T00:51:23.584Z,0.00
2018-06-08T00:52:23.587Z,0.00
2018-06-08T00:53:23.591Z,0.00
2018-06-08T00:54:23.598Z,0.00
2018-06-08T00:55:23.613Z,0.00
2018-06-08T00:56:23.606Z,0.00
2018-06-08T00:57:23.668Z,0.00
2018-06-08T00:58:23.612Z,0.00
2018-06-08T00:59:23.636Z,0.00
2018-06-08T01:00:23.634Z,0.00
2018-06-08T01:01:23.625Z,0.00
2018-06-08T01:02:23.634Z,0.00
2018-06-08T01:03:23.632Z,0.00
2018-06-08T01:04:23.636Z,0.00
2018-06-08T01:05:23.644Z,0.00
2018-06-08T01:07:53.753Z,0.00
2018-06-08T01:08:53.299Z,0.00
2018-06-08T01:10:38.087Z,0.00
2018-06-08T01:11:38.074Z,0.00
2018-06-08T01:12:38.091Z,0.00
2018-06-08T01:13:38.085Z,0.00
2018-06-08T01:14:38.085Z,0.00
2018-06-08T01:15:38.091Z,0.00
2018-06-08T01:16:38.099Z,0.00
2018-06-08T01:17:38.104Z,0.00
2018-06-08T01:18:38.105Z,0.00
2018-06-08T01:19:38.111Z,0.00
2018-06-08T01:20:38.111Z,0.00
2018-06-08T01:21:38.115Z,0.00
2018-06-08T01:22:38.125Z,0.00
2018-06-08T01:23:38.126Z,0.00
2018-06-08T01:24:38.127Z,0.00
2018-06-08T01:25:38.130Z,0.00
2018-06-08T01:26:38.138Z,0.00
2018-06-08T01:27:38.142Z,0.00
2018-06-08T01:28:38.150Z,0.00
2018-06-08T01:29:38.157Z,0.00
2018-06-08T01:30:38.157Z,0.00
2018-06-08T01:31:38.161Z,0.00
2018-06-08T01:32:38.167Z,0.00
2018-06-08T01:33:38.166Z,0.00
2018-06-08T01:34:38.170Z,0.00
2018-06-08T01:35:38.180Z,0.00
2018-06-08T01:36:38.176Z,0.00
2018-06-08T01:37:38.226Z,0.00
2018-06-08T01:38:38.187Z,0.00
2018-06-08T01:39:38.197Z,0.00
2018-06-08T01:40:38.205Z,0.00
2018-06-08T01:41:38.201Z,0.00
2018-06-08T01:42:38.200Z,0.00
2018-06-08T01:43:38.206Z,0.00
2018-06-08T01:44:38.228Z,0.00
2018-06-08T01:45:38.215Z,0.00
2018-06-08T01:46:38.223Z,0.00
2018-06-08T01:47:38.231Z,0.00
2018-06-08T01:48:38.226Z,0.00
2018-06-08T01:49:38.238Z,0.00
2018-06-08T01:50:38.235Z,0.00
2018-06-08T01:51:38.239Z,0.00
2018-06-08T01:52:38.251Z,0.00
2018-06-08T01:53:38.251Z,0.00
2018-06-08T01:54:38.262Z,0.00
2018-06-08T01:55:38.270Z,0.00
2018-06-08T01:56:38.260Z,0.00
2018-06-08T01:57:38.268Z,0.00
2018-06-08T01:58:38.266Z,0.00
2018-06-08T01:59:38.273Z,0.00
2018-06-08T02:00:38.270Z,0.00
2018-06-08T02:01:38.276Z,0.00
2018-06-08T02:02:38.284Z,0.00
2018-06-08T02:03:38.282Z,0.00
2018-06-08T02:04:38.286Z,0.00
2018-06-08T02:05:38.288Z,0.00
2018-06-08T02:06:38.289Z,0.00
2018-06-08T02:07:38.302Z,0.00
2018-06-08T02:08:38.313Z,0.00
2018-06-08T02:09:38.305Z,0.00
2018-06-08T02:10:38.317Z,0.00
2018-06-08T02:11:38.318Z,0.00
2018-06-08T02:12:38.314Z,0.00
2018-06-08T02:13:38.324Z,0.00
2018-06-08T02:14:38.330Z,0.00
2018-06-08T02:15:38.330Z,0.00
2018-06-08T02:16:38.337Z,0.00
2018-06-08T02:17:38.338Z,0.00
2018-06-08T02:18:38.359Z,0.00
2018-06-08T02:19:38.345Z,0.00
2018-06-08T02:20:38.346Z,0.00
2018-06-08T02:21:38.356Z,0.00
2018-06-08T02:22:38.359Z,0.00
2018-06-08T02:23:38.356Z,0.00
2018-06-08T02:24:38.364Z,0.00
2018-06-08T02:25:38.364Z,0.00
2018-06-08T02:26:38.373Z,0.00
2018-06-08T02:27:38.373Z,0.00
2018-06-08T02:28:38.375Z,0.00
2018-06-08T02:29:38.384Z,0.00
2018-06-08T02:30:38.388Z,0.00
2018-06-08T02:31:38.388Z,0.00
2018-06-08T02:32:38.394Z,0.00
2018-06-08T02:33:38.398Z,0.00
2018-06-08T02:34:38.401Z,0.00
2018-06-08T02:35:38.406Z,0.00
2018-06-08T02:36:38.410Z,0.00
2018-06-08T02:37:38.409Z,0.00
2018-06-08T02:38:38.413Z,0.00
2018-06-08T02:39:38.428Z,0.00
2018-06-08T02:40:38.422Z,0.00
2018-06-08T02:41:38.428Z,0.00
2018-06-08T02:42:38.436Z,0.00
2018-06-08T02:43:38.437Z,0.00
2018-06-08T02:44:38.441Z,0.00
2018-06-08T02:45:38.443Z,0.00
2018-06-08T02:46:38.449Z,0.00
2018-06-08T02:47:38.446Z,0.00
2018-06-08T02:48:38.451Z,0.00
2018-06-08T02:49:38.461Z,4.00
2018-06-08T02:50:38.470Z,4.00
2018-06-08T02:51:38.477Z,0.00
2018-06-08T02:52:38.464Z,0.00
2018-06-08T02:53:38.470Z,4.00
2018-06-08T02:54:38.473Z,4.00
2018-06-08T02:55:38.490Z,0.00
2018-06-08T02:56:38.483Z,4.00
2018-06-08T02:57:38.480Z,4.00
2018-06-08T02:58:38.485Z,4.00
2018-06-08T02:59:38.502Z,4.00
2018-06-08T03:00:38.511Z,4.00
2018-06-08T03:01:38.494Z,8.00
2018-06-08T03:02:38.503Z,4.00
2018-06-08T03:03:38.504Z,4.00
2018-06-08T03:22:58.353Z,40.00
2018-06-08T03:23:58.336Z,40.00
2018-06-08T03:24:58.337Z,44.00
2018-06-08T03:25:58.335Z,48.00
2018-06-08T03:26:58.335Z,56.00
2018-06-08T03:27:58.333Z,56.00
2018-06-08T03:28:58.332Z,64.00
2018-06-08T03:29:58.341Z,72.00
2018-06-08T03:30:58.339Z,76.00
2018-06-08T03:31:58.339Z,80.00
2018-06-08T03:32:58.338Z,88.00
2018-06-08T03:33:58.339Z,96.00
2018-06-08T03:34:58.343Z,104.00
2018-06-08T03:35:58.420Z,112.00
2018-06-08T03:36:58.343Z,120.00
2018-06-08T03:37:58.345Z,128.00
2018-06-08T03:38:58.352Z,132.00
2018-06-08T03:39:58.360Z,144.00
2018-06-08T03:40:58.353Z,156.00
2018-06-08T03:41:58.359Z,160.00
2018-06-08T03:42:58.369Z,168.00
2018-06-08T03:44:06.999Z,176.00
2018-06-08T03:45:51.801Z,192.00
2018-06-08T03:46:51.771Z,204.00
2018-06-08T03:47:51.773Z,216.00
2018-06-08T03:48:51.785Z,232.00
2018-06-08T03:50:00.419Z,248.00
2018-06-08T03:51:54.248Z,272.00
2018-06-08T03:52:45.193Z,292.00
2018-06-08T03:53:45.195Z,308.00
2018-06-08T03:54:45.211Z,324.00
2018-06-08T03:55:45.197Z,348.00
2018-06-08T03:56:45.211Z,372.00
2018-06-08T03:57:45.207Z,388.00
2018-06-08T03:58:45.203Z,404.00
2018-06-08T03:59:45.214Z,428.00
2018-06-08T04:00:45.215Z,452.00
2018-06-08T04:01:45.217Z,476.00
2018-06-08T04:02:45.230Z,516.00
2018-06-08T04:03:45.226Z,556.00
2018-06-08T04:04:45.228Z,592.00
2018-06-08T04:05:45.229Z,616.00
2018-06-08T04:06:45.233Z,656.00
2018-06-08T04:07:45.238Z,688.00
2018-06-08T04:08:45.242Z,732.00
2018-06-08T04:09:45.245Z,752.00
2018-06-08T04:10:45.249Z,808.00
2018-06-08T04:11:45.254Z,832.00
2018-06-08T04:12:45.266Z,860.00
2018-06-08T04:13:45.256Z,988.00
2018-06-08T04:14:45.259Z,904.00
2018-06-08T04:15:45.269Z,952.00
2018-06-08T04:16:45.273Z,992.00
2018-06-08T04:17:45.278Z,1012.00
2018-06-08T04:18:45.274Z,1032.00
2018-06-08T04:19:45.278Z,1092.00
2018-06-08T04:20:45.280Z,1132.00
2018-06-08T04:21:45.290Z,1176.00
2018-06-08T04:22:45.292Z,1236.00
2018-06-08T04:23:45.296Z,1276.00
2018-06-08T04:24:45.303Z,1316.00
2018-06-08T04:25:45.314Z,1360.00
2018-06-08T04:26:45.308Z,1392.00
2018-06-08T04:27:45.304Z,1504.00
2018-06-08T04:28:45.317Z,1504.00
2018-06-08T04:29:45.319Z,1564.00
2018-06-08T04:30:45.321Z,1696.00
2018-06-08T04:31:45.329Z,1868.00
2018-06-08T04:32:45.337Z,1952.00
2018-06-08T04:33:45.334Z,2044.00
2018-06-08T04:34:45.339Z,2120.00
2018-06-08T04:35:45.345Z,2248.00
2018-06-08T04:36:45.342Z,2376.00
2018-06-08T04:37:45.346Z,2488.00
2018-06-08T04:38:45.350Z,2632.00
2018-06-08T04:39:45.360Z,2724.00
2018-06-08T04:40:45.366Z,2716.00
2018-06-08T04:41:45.368Z,2880.00
2018-06-08T04:42:45.372Z,2884.00
2018-06-08T04:43:45.375Z,2904.00
2018-06-08T04:44:45.384Z,3044.00
2018-06-08T04:45:45.389Z,2972.00
2018-06-08T04:46:45.390Z,2992.00
2018-06-08T04:47:45.397Z,3000.00
2018-06-08T04:48:45.405Z,2904.00
2018-06-08T04:49:45.411Z,2888.00
2018-06-08T04:50:45.410Z,2780.00
2018-06-08T04:51:45.498Z,2860.00
2018-06-08T04:52:45.425Z,2776.00
2018-06-08T04:53:45.435Z,2780.00
2018-06-08T04:54:45.435Z,2748.00
2018-06-08T04:55:45.443Z,3000.00
2018-06-08T04:56:45.448Z,3848.00
2018-06-08T04:57:45.451Z,4332.00
2018-06-08T04:58:45.463Z,4036.00
2018-06-08T04:59:45.466Z,3472.00
2018-06-08T05:00:45.480Z,3008.00
2018-06-08T05:01:45.476Z,3076.00
2018-06-08T05:02:45.489Z,5048.00
2018-06-08T05:03:45.487Z,4960.00
2018-06-08T05:04:45.492Z,4896.00
2018-06-08T05:05:45.506Z,4972.00
2018-06-08T05:06:45.510Z,4864.00
2018-06-08T05:07:45.519Z,4752.00
2018-06-08T05:08:45.523Z,4552.00
2018-06-08T05:09:45.553Z,4504.00
2018-06-08T05:10:45.532Z,4452.00
2018-06-08T05:11:45.540Z,4412.00
2018-06-08T05:12:45.549Z,4240.00
2018-06-08T05:13:45.558Z,4116.00
2018-06-08T05:14:45.564Z,4064.00
2018-06-08T05:15:45.574Z,4240.00
2018-06-08T05:16:45.572Z,4464.00
2018-06-08T05:17:45.589Z,4628.00
2018-06-08T05:18:45.587Z,4900.00
2018-06-08T05:19:45.594Z,4984.00
2018-06-08T05:20:45.610Z,5260.00
2018-06-08T05:21:45.607Z,5396.00
2018-06-08T05:24:06.671Z,5680.00
2018-06-08T05:25:06.663Z,5856.00
2018-06-08T05:26:06.666Z,5820.00
2018-06-08T05:27:06.670Z,5712.00
2018-06-08T05:28:06.687Z,5444.00
2018-06-08T05:29:06.693Z,5116.00
2018-06-08T05:30:06.696Z,4860.00
2018-06-08T05:31:06.702Z,4680.00
2018-06-08T05:32:06.706Z,4664.00
2018-06-08T05:33:06.716Z,4548.00
2018-06-08T05:34:06.720Z,3308.00
2018-06-08T05:35:06.730Z,3232.00
2018-06-08T05:36:06.786Z,3104.00
2018-06-08T05:37:06.743Z,2924.00
2018-06-08T05:38:06.750Z,2864.00
2018-06-08T05:39:06.756Z,2696.00
2018-06-08T05:40:06.770Z,2748.00
2018-06-08T05:41:06.775Z,2768.00
2018-06-08T05:42:06.778Z,2972.00
2018-06-08T05:43:06.790Z,3124.00
2018-06-08T05:44:06.791Z,3300.00
2018-06-08T05:45:06.810Z,3868.00
2018-06-08T05:46:06.812Z,4104.00
2018-06-08T05:47:06.811Z,4140.00
2018-06-08T05:48:06.879Z,4328.00
2018-06-08T05:49:06.830Z,4528.00
2018-06-08T05:50:06.843Z,4468.00
2018-06-08T05:51:06.844Z,4636.00
2018-06-08T05:52:06.842Z,4928.00
2018-06-08T05:53:06.860Z,4932.00
2018-06-08T05:54:06.864Z,4920.00
2018-06-08T05:55:06.875Z,4980.00
2018-06-08T05:56:06.874Z,4768.00
2018-06-08T05:57:06.889Z,4640.00
2018-06-08T05:58:06.892Z,4644.00
2018-06-08T05:59:06.902Z,4644.00
2018-06-08T06:00:06.902Z,4600.00
2018-06-08T06:01:06.963Z,4476.00
2018-06-08T06:02:06.926Z,4412.00
2018-06-08T06:03:06.935Z,4396.00
2018-06-08T06:04:06.942Z,4296.00
2018-06-08T06:05:06.948Z,4348.00
2018-06-08T06:06:06.958Z,4260.00
2018-06-08T06:07:06.961Z,4248.00
2018-06-08T06:08:07.002Z,4376.00
2018-06-08T06:09:06.976Z,4144.00
2018-06-08T06:10:06.988Z,4020.00
2018-06-08T06:11:06.992Z,3852.00
2018-06-08T06:12:06.998Z,3872.00
2018-06-08T06:13:07.008Z,3760.00
2018-06-08T06:14:07.019Z,3660.00
2018-06-08T06:15:07.022Z,3524.00
2018-06-08T06:16:07.034Z,3540.00
2018-06-08T06:17:07.040Z,3528.00
2018-06-08T06:18:07.048Z,3488.00
2018-06-08T06:19:07.059Z,3496.00
2018-06-08T06:20:07.064Z,3444.00
2018-06-08T06:21:07.078Z,3448.00
2018-06-08T06:22:07.077Z,3432.00
2018-06-08T06:23:07.088Z,3420.00
2018-06-08T06:24:07.103Z,3432.00
2018-06-08T06:25:07.102Z,3452.00
2018-06-08T06:26:07.112Z,3456.00
2018-06-08T06:27:07.113Z,3520.00
2018-06-08T06:29:28.166Z,3348.00
2018-06-08T06:30:28.156Z,3284.00
2018-06-08T06:31:28.172Z,3248.00
2018-06-08T06:32:28.178Z,3196.00
2018-06-08T06:33:28.187Z,3164.00
2018-06-08T06:34:28.187Z,3104.00
2018-06-08T06:35:28.196Z,3076.00
2018-06-08T06:36:28.209Z,3024.00
2018-06-08T06:37:28.211Z,3000.00
2018-06-08T06:38:28.220Z,3056.00
2018-06-08T06:39:28.227Z,2988.00
2018-06-08T06:40:28.234Z,2956.00
2018-06-08T06:41:28.242Z,3016.00
2018-06-08T06:42:28.250Z,3012.00
2018-06-08T06:43:28.262Z,3012.00
2018-06-08T06:44:28.259Z,3008.00
2018-06-08T06:45:28.267Z,3148.00
2018-06-08T06:46:28.281Z,3104.00
2018-06-08T06:47:28.291Z,3040.00
2018-06-08T06:48:28.292Z,3056.00
2018-06-08T06:49:28.300Z,3068.00
2018-06-08T06:50:28.308Z,3092.00
2018-06-08T06:51:28.318Z,3156.00
2018-06-08T06:52:28.318Z,3164.00
2018-06-08T06:53:28.326Z,3224.00
2018-06-08T06:54:28.333Z,3268.00
2018-06-08T06:55:28.349Z,3272.00
2018-06-08T06:56:28.352Z,3368.00
2018-06-08T06:57:28.363Z,3248.00
2018-06-08T06:58:28.367Z,3348.00
2018-06-08T06:59:28.377Z,3136.00
2018-06-08T07:00:28.382Z,3124.00
2018-06-08T07:01:28.388Z,3192.00
2018-06-08T07:02:28.394Z,3164.00
2018-06-08T07:03:28.414Z,3140.00
2018-06-08T07:04:28.442Z,3288.00
2018-06-08T07:05:28.413Z,3236.00
2018-06-08T07:06:28.428Z,3268.00
2018-06-08T07:07:28.437Z,3224.00
2018-06-08T07:08:28.437Z,3280.00
2018-06-08T07:09:28.441Z,3244.00
2018-06-08T07:10:28.449Z,3152.00
2018-06-08T07:11:28.456Z,3108.00
2018-06-08T07:12:28.470Z,2948.00
2018-06-08T07:13:28.491Z,2880.00
2018-06-08T07:14:28.478Z,2660.00
2018-06-08T07:15:28.492Z,2692.00
2018-06-08T07:16:28.508Z,2840.00
2018-06-08T07:17:28.501Z,2900.00
2018-06-08T07:18:28.515Z,2996.00
2018-06-08T07:19:28.536Z,3092.00
2018-06-08T07:20:28.533Z,3172.00
2018-06-08T07:21:28.647Z,3092.00
2018-06-08T07:22:28.560Z,2984.00
2018-06-08T07:23:28.548Z,2828.00
2018-06-08T07:24:28.550Z,2696.00
2018-06-08T07:25:28.562Z,2668.00
2018-06-08T07:26:28.565Z,2580.00
2018-06-08T07:27:28.573Z,2636.00
2018-06-08T07:28:28.583Z,2644.00
2018-06-08T07:29:28.584Z,2612.00
2018-06-08T07:30:28.599Z,2596.00
2018-06-08T07:31:28.672Z,2540.00
2018-06-08T07:32:28.615Z,2648.00
2018-06-08T07:33:28.617Z,2740.00
2018-06-08T07:34:28.624Z,2716.00
2018-06-08T07:35:28.630Z,2672.00
2018-06-08T07:36:28.642Z,2648.00
2018-06-08T07:37:28.645Z,2560.00
2018-06-08T07:38:28.659Z,2512.00
2018-06-08T07:39:28.665Z,2472.00
2018-06-08T07:40:28.668Z,2400.00
2018-06-08T07:41:28.681Z,2352.00
2018-06-08T07:42:28.684Z,2352.00
2018-06-08T07:43:28.694Z,2260.00
2018-06-08T07:44:28.711Z,2328.00
2018-06-08T07:45:28.718Z,2204.00
2018-06-08T07:46:28.714Z,2240.00
2018-06-08T07:47:28.722Z,2324.00
2018-06-08T07:48:28.731Z,2148.00
2018-06-08T07:49:28.732Z,2228.00
2018-06-08T07:50:28.745Z,2192.00
2018-06-08T07:51:28.751Z,2172.00
2018-06-08T07:52:28.760Z,2128.00
2018-06-08T07:53:28.767Z,2052.00
2018-06-08T07:54:28.780Z,2052.00
2018-06-08T07:55:28.784Z,1852.00
2018-06-08T07:56:28.793Z,2060.00
2018-06-08T07:57:28.801Z,1988.00
2018-06-08T07:58:28.804Z,1976.00
2018-06-08T07:59:28.812Z,1956.00
2018-06-08T08:00:28.818Z,1936.00
2018-06-08T08:01:28.824Z,1904.00
2018-06-08T08:02:28.830Z,1892.00
2018-06-08T08:03:28.835Z,1960.00
2018-06-08T08:04:28.855Z,1976.00
2018-06-08T08:05:28.852Z,2016.00
2018-06-08T08:06:28.860Z,2036.00
2018-06-08T08:07:28.883Z,2040.00
2018-06-08T08:08:28.868Z,2036.00
2018-06-08T08:09:28.882Z,2052.00
2018-06-08T08:10:28.893Z,1976.00
2018-06-08T08:11:28.895Z,1972.00
2018-06-08T08:12:28.897Z,1960.00
2018-06-08T08:13:28.934Z,1944.00
2018-06-08T08:14:28.916Z,1920.00
2018-06-08T08:15:28.918Z,1868.00
2018-06-08T08:16:28.934Z,1872.00
2018-06-08T08:17:28.942Z,1852.00
2018-06-08T08:18:28.940Z,1772.00
2018-06-08T08:19:28.961Z,1824.00
2018-06-08T08:20:28.958Z,1840.00
2018-06-08T08:21:28.962Z,1768.00
2018-06-08T08:22:28.976Z,1716.00
2018-06-08T08:23:28.979Z,1676.00
2018-06-08T08:24:28.988Z,1668.00
2018-06-08T08:25:28.995Z,1624.00
2018-06-08T08:26:29.006Z,1560.00
2018-06-08T08:27:29.009Z,1480.00
2018-06-08T08:28:29.016Z,1428.00
2018-06-08T08:29:29.024Z,1400.00
2018-06-08T08:30:29.033Z,1364.00
2018-06-08T08:31:29.042Z,1360.00
2018-06-08T08:32:29.049Z,1308.00
2018-06-08T08:33:29.056Z,1240.00
2018-06-08T08:34:29.064Z,1236.00
2018-06-08T08:35:29.069Z,1256.00
2018-06-08T08:36:29.074Z,1272.00
2018-06-08T08:37:29.083Z,1376.00
2018-06-08T08:38:29.090Z,1500.00
2018-06-08T08:39:29.101Z,1520.00
2018-06-08T08:40:29.109Z,1632.00
2018-06-08T08:41:29.121Z,1704.00
2018-06-08T08:42:29.120Z,1764.00
2018-06-08T08:43:29.129Z,1724.00
2018-06-08T08:44:29.137Z,1748.00
2018-06-08T08:45:29.143Z,1808.00
2018-06-08T08:46:29.262Z,1840.00
2018-06-08T08:47:29.161Z,1816.00
2018-06-08T08:48:29.161Z,1804.00
2018-06-08T08:49:29.176Z,1736.00
2018-06-08T08:50:29.183Z,1640.00
2018-06-08T08:51:29.207Z,1536.00
2018-06-08T08:52:29.191Z,1456.00
2018-06-08T08:53:29.212Z,1456.00
2018-06-08T08:54:29.207Z,1464.00
2018-06-08T08:55:29.218Z,1244.00
2018-06-08T08:56:29.224Z,1212.00
2018-06-08T08:57:29.231Z,1276.00
2018-06-08T08:58:29.235Z,1296.00
2018-06-08T08:59:29.248Z,1300.00
2018-06-08T09:00:29.250Z,1256.00
2018-06-08T09:01:29.257Z,1344.00
2018-06-08T09:02:29.267Z,1452.00
2018-06-08T09:03:29.297Z,1620.00
2018-06-08T09:04:29.281Z,1688.00
2018-06-08T09:05:29.292Z,1728.00
2018-06-08T09:06:29.294Z,1692.00
2018-06-08T09:07:29.303Z,1764.00
2018-06-08T09:08:29.312Z,1504.00
2018-06-08T09:09:29.316Z,1552.00
2018-06-08T09:10:29.322Z,1400.00
2018-06-08T09:11:29.360Z,1304.00
2018-06-08T09:12:29.335Z,1300.00
2018-06-08T09:13:29.340Z,1252.00
2018-06-08T09:14:29.355Z,1260.00
2018-06-08T09:15:29.358Z,1112.00
2018-06-08T09:16:29.364Z,1240.00
2018-06-08T09:17:29.372Z,1272.00
2018-06-08T09:18:29.382Z,1336.00
2018-06-08T09:19:29.416Z,1432.00
2018-06-08T09:20:29.391Z,1380.00
2018-06-08T09:21:29.403Z,1460.00
2018-06-08T09:22:29.407Z,1464.00
2018-06-08T09:23:29.417Z,1432.00
2018-06-08T09:24:29.425Z,1428.00
2018-06-08T09:25:29.435Z,1432.00
2018-06-08T09:26:29.439Z,1468.00
2018-06-08T09:27:29.446Z,1504.00
2018-06-08T09:28:29.452Z,1664.00
2018-06-08T09:29:29.474Z,1624.00
2018-06-08T09:30:29.467Z,1568.00
2018-06-08T09:31:29.474Z,1544.00
2018-06-08T09:32:29.478Z,1504.00
2018-06-08T09:33:29.494Z,1560.00
2018-06-08T09:34:29.498Z,1580.00
2018-06-08T09:35:29.508Z,1632.00
2018-06-08T09:36:29.507Z,1484.00
2018-06-08T09:37:29.518Z,1548.00
2018-06-08T09:38:29.527Z,1540.00
2018-06-08T09:39:29.546Z,1560.00
2018-06-08T09:40:29.543Z,1528.00
2018-06-08T09:41:29.552Z,1532.00
2018-06-08T09:42:29.561Z,1456.00
2018-06-08T09:43:29.567Z,1480.00
2018-06-08T09:44:29.573Z,1520.00
2018-06-08T09:45:29.588Z,1504.00
2018-06-08T09:46:29.617Z,1472.00
2018-06-08T09:47:29.604Z,1428.00
2018-06-08T09:48:29.602Z,1540.00
2018-06-08T09:49:29.609Z,1536.00
2018-06-08T09:50:29.626Z,1624.00
2018-06-08T09:51:29.632Z,1588.00
2018-06-08T09:52:29.628Z,1584.00
2018-06-08T09:53:29.667Z,1592.00
2018-06-08T09:54:29.667Z,1552.00
2018-06-08T09:55:29.657Z,1616.00
2018-06-08T09:56:29.687Z,1560.00
2018-06-08T09:57:29.680Z,1612.00
2018-06-08T09:58:29.682Z,1576.00
2018-06-08T09:59:29.687Z,1504.00
2018-06-08T10:00:29.705Z,1512.00
2018-06-08T10:01:29.744Z,1560.00
2018-06-08T10:02:29.754Z,1544.00
2018-06-08T10:03:29.731Z,1524.00
2018-06-08T10:04:29.776Z,1524.00
2018-06-08T10:05:29.771Z,1424.00
2018-06-08T10:06:29.779Z,1360.00
2018-06-08T10:07:29.749Z,1332.00
2018-06-08T10:08:29.793Z,1504.00
2018-06-08T10:09:29.773Z,1288.00
2018-06-08T10:10:29.773Z,1292.00
2018-06-08T10:11:29.779Z,1284.00
2018-06-08T10:12:29.795Z,1276.00
2018-06-08T10:13:29.789Z,1284.00
2018-06-08T10:14:29.801Z,1276.00
2018-06-08T10:15:29.816Z,1328.00
2018-06-08T10:16:29.839Z,1276.00
2018-06-08T10:17:29.997Z,1236.00
2018-06-08T10:18:29.844Z,1240.00
2018-06-08T10:19:29.844Z,1256.00
2018-06-08T10:20:31.841Z,1280.00
2018-06-08T10:21:29.861Z,1228.00
2018-06-08T10:22:29.882Z,1284.00
2018-06-08T10:23:29.878Z,1308.00
2018-06-08T10:24:29.882Z,1284.00
2018-06-08T10:25:29.891Z,1304.00
2018-06-08T10:26:29.899Z,1256.00
2018-06-08T10:27:29.901Z,1164.00
2018-06-08T10:28:29.911Z,1156.00
2018-06-08T10:29:29.916Z,1156.00
2018-06-08T10:30:29.923Z,1136.00
2018-06-08T10:31:29.933Z,1160.00
2018-06-08T10:32:29.941Z,1188.00
2018-06-08T10:33:29.949Z,1216.00
2018-06-08T10:34:29.958Z,1228.00
2018-06-08T10:35:29.963Z,1208.00
2018-06-08T10:36:29.970Z,1264.00
2018-06-08T10:37:29.973Z,1284.00
2018-06-08T10:38:29.991Z,1276.00
2018-06-08T10:39:29.994Z,1372.00
2018-06-08T10:40:30.009Z,1400.00
2018-06-08T10:41:30.013Z,1396.00
2018-06-08T10:42:30.015Z,1384.00
2018-06-08T10:43:30.067Z,1376.00
2018-06-08T10:44:30.028Z,1416.00
2018-06-08T10:45:30.032Z,1332.00
2018-06-08T10:46:30.046Z,1352.00
2018-06-08T10:47:30.055Z,1392.00
2018-06-08T10:48:30.076Z,1392.00
2018-06-08T10:49:30.074Z,1436.00
2018-06-08T10:50:30.080Z,1424.00
2018-06-08T10:51:30.082Z,1428.00
2018-06-08T10:52:30.094Z,1316.00
2018-06-08T10:53:30.108Z,1388.00
2018-06-08T10:54:30.107Z,1376.00
2018-06-08T10:55:30.114Z,1408.00
2018-06-08T10:56:30.123Z,1528.00
2018-06-08T10:57:30.137Z,1392.00
2018-06-08T10:58:30.154Z,1364.00
2018-06-08T10:59:30.149Z,1400.00
2018-06-08T11:00:30.156Z,1396.00
2018-06-08T11:01:30.166Z,1356.00
2018-06-08T11:02:30.186Z,1316.00
2018-06-08T11:03:30.192Z,1496.00
2018-06-08T11:04:30.191Z,1356.00
2018-06-08T11:05:30.197Z,1320.00
2018-06-08T11:06:30.213Z,1220.00
2018-06-08T11:07:30.249Z,1152.00
2018-06-08T11:08:30.214Z,1160.00
2018-06-08T11:09:30.227Z,1196.00
2018-06-08T11:10:30.245Z,1124.00
2018-06-08T11:11:30.237Z,1168.00
2018-06-08T11:12:30.246Z,1180.00
2018-06-08T11:13:30.254Z,1184.00
2018-06-08T11:14:30.261Z,1224.00
2018-06-08T11:15:30.269Z,1280.00
2018-06-08T11:16:30.277Z,1320.00
2018-06-08T11:17:30.285Z,1276.00
2018-06-08T11:18:30.295Z,1204.00
2018-06-08T11:19:30.303Z,1256.00
2018-06-08T11:20:30.307Z,1232.00
2018-06-08T11:21:30.318Z,1272.00
2018-06-08T11:22:30.334Z,1196.00
2018-06-08T11:23:30.334Z,1104.00
2018-06-08T11:24:30.336Z,1044.00
2018-06-08T11:25:30.345Z,1060.00
2018-06-08T11:26:30.412Z,980.00
2018-06-08T11:27:30.433Z,936.00
2018-06-08T11:28:30.368Z,1072.00
2018-06-08T11:29:30.382Z,952.00
2018-06-08T11:30:30.389Z,892.00
2018-06-08T11:31:30.406Z,968.00
2018-06-08T11:32:30.402Z,1004.00
2018-06-08T11:33:30.422Z,988.00
2018-06-08T11:34:30.425Z,980.00
2018-06-08T11:35:30.449Z,1000.00
2018-06-08T11:36:30.449Z,1104.00
2018-06-08T11:37:30.456Z,1108.00
2018-06-08T11:38:30.453Z,1048.00
2018-06-08T11:39:30.519Z,1040.00
2018-06-08T11:40:30.515Z,1036.00
2018-06-08T11:41:30.471Z,1032.00
2018-06-08T11:42:30.478Z,1040.00
2018-06-08T11:43:30.492Z,992.00
2018-06-08T11:44:30.501Z,996.00
2018-06-08T11:45:30.509Z,928.00
2018-06-08T11:47:51.559Z,840.00
2018-06-08T11:48:51.557Z,876.00
2018-06-08T11:49:51.554Z,832.00
2018-06-08T11:50:51.561Z,824.00
2018-06-08T11:51:51.569Z,836.00
2018-06-08T11:52:51.582Z,856.00
2018-06-08T11:53:51.591Z,908.00
2018-06-08T11:54:51.596Z,924.00
2018-06-08T11:55:51.611Z,920.00
2018-06-08T11:56:51.616Z,924.00
2018-06-08T11:57:51.624Z,924.00
2018-06-08T11:58:51.651Z,944.00
2018-06-08T11:59:51.645Z,968.00
2018-06-08T12:00:51.641Z,948.00
2018-06-08T12:01:51.748Z,996.00
2018-06-08T12:03:01.294Z,904.00
2018-06-08T12:04:45.120Z,1060.00
2018-06-08T12:05:45.092Z,1068.00
2018-06-08T12:06:45.091Z,1084.00
2018-06-08T12:07:45.099Z,1076.00
2018-06-08T12:08:45.110Z,1052.00
2018-06-08T12:09:45.118Z,1024.00
2018-06-08T12:10:45.124Z,1000.00
2018-06-08T12:11:45.137Z,992.00
2018-06-08T12:12:45.140Z,968.00
2018-06-08T12:13:45.146Z,964.00
2018-06-08T12:14:45.153Z,984.00
2018-06-08T12:15:45.166Z,972.00
2018-06-08T12:16:45.172Z,984.00
2018-06-08T12:17:45.181Z,1008.00
2018-06-08T12:18:45.187Z,1016.00
2018-06-08T12:19:45.196Z,1000.00
2018-06-08T12:20:45.203Z,992.00
2018-06-08T12:21:45.213Z,1028.00
2018-06-08T12:22:45.222Z,1080.00
2018-06-08T12:23:45.366Z,964.00
2018-06-08T12:24:45.230Z,976.00
2018-06-08T12:25:45.242Z,1028.00
2018-06-08T12:26:45.251Z,1432.00
2018-06-08T12:27:45.257Z,1132.00
2018-06-08T12:28:45.265Z,1068.00
2018-06-08T12:29:45.279Z,1160.00
2018-06-08T12:30:45.300Z,1160.00
2018-06-08T12:31:45.284Z,1204.00
2018-06-08T12:32:45.297Z,1292.00
2018-06-08T12:33:45.318Z,1212.00
2018-06-08T12:34:45.312Z,1180.00
2018-06-08T12:35:45.320Z,1600.00
2018-06-08T12:36:45.324Z,1260.00
2018-06-08T12:37:45.334Z,1496.00
2018-06-08T12:38:45.343Z,1336.00
2018-06-08T12:39:45.352Z,1316.00
2018-06-08T12:40:45.364Z,1320.00
2018-06-08T12:41:45.374Z,1296.00
2018-06-08T12:42:45.379Z,1320.00
2018-06-08T12:43:45.384Z,1328.00
2018-06-08T12:44:45.395Z,1284.00
2018-06-08T12:45:45.403Z,1260.00
2018-06-08T12:46:45.405Z,1260.00
2018-06-08T12:47:45.416Z,1240.00
2018-06-08T12:48:45.418Z,1252.00
2018-06-08T12:49:45.432Z,1224.00
2018-06-08T12:50:45.431Z,1080.00
2018-06-08T12:51:45.442Z,1204.00
2018-06-08T12:52:45.454Z,1248.00